Time;durP1;ratioP1;P1;durP2;ratioP2;P2;SDS_P1;SDS_P2;PMS_P1;PMS_P2;Temp;Humidity;BMP_temperature;BMP_pressure;BME280_temperature;BME280_humidity;BME280_pressure;Samples;Min_cycle;Max_cycle;Signal;HPM_P1;HPM_P2
2021/12/05 00:25:04;;;;;;;4.17;2.10;;;;;;;7.38;63.02;96441.22;8284593;28;20234;-65
2021/12/05 00:29:19;;;;;;;2.47;1.97;;;;;;;7.36;62.90;96444.81;8299921;28;20229;-67
2021/12/05 00:33:43;;;;;;;4.33;1.80;;;;;;;7.06;62.80;96448.13;8292529;28;20237;-66
2021/12/05 00:51:12;;;;;;;5.13;1.87;;;;;;;7.29;60.41;96502.69;8284887;28;20288;-66
2021/12/05 01:00:01;;;;;;;4.67;2.37;;;;;;;7.43;59.89;96524.22;8278116;28;20537;-66
2021/12/05 01:04:30;;;;;;;4.67;1.97;;;;;;;7.34;59.80;96532.44;8282837;28;20233;-66
2021/12/05 01:13:15;;;;;;;4.30;2.00;;;;;;;7.24;60.32;96555.28;8315556;28;20243;-66
2021/12/05 01:17:24;;;;;;;6.33;2.20;;;;;;;7.17;60.50;96566.81;8282555;28;20229;-67
2021/12/05 01:21:27;;;;;;;5.07;1.90;;;;;;;7.19;60.43;96569.31;8282667;28;20241;-66
2021/12/05 01:25:41;;;;;;;6.00;2.13;;;;;;;7.05;60.27;96567.47;8282814;28;20428;-66
2021/12/05 01:29:49;;;;;;;4.43;2.20;;;;;;;7.10;60.07;96578.38;8282560;28;20241;-66
2021/12/05 01:33:58;;;;;;;3.90;2.33;;;;;;;7.07;60.27;96585.44;8282654;28;20241;-66
2021/12/05 01:38:08;;;;;;;4.83;2.30;;;;;;;7.21;59.73;96586.34;8282579;28;20248;-66
2021/12/05 01:56:02;;;;;;;6.27;1.90;;;;;;;7.13;59.12;96585.91;8261847;28;20237;-66
2021/12/05 02:00:57;;;;;;;4.17;1.80;;;;;;;7.18;58.98;96583.13;8282115;28;20230;-67
2021/12/05 02:09:47;;;;;;;5.60;1.90;;;;;;;7.14;58.60;96567.00;8281857;28;20225;-66
2021/12/05 02:40:48;;;;;;;6.57;2.00;;;;;;;7.16;57.34;96578.03;8485970;27;20546;-65
2021/12/05 02:44:51;;;;;;;7.30;2.43;;;;;;;7.03;57.21;96580.44;8476713;28;20548;-66
2021/12/05 02:48:58;;;;;;;5.43;1.90;;;;;;;7.09;57.29;96576.69;8476497;28;20241;-66
2021/12/05 02:53:10;;;;;;;6.80;2.30;;;;;;;6.84;57.58;96579.72;8476380;28;20229;-66
2021/12/05 02:57:15;;;;;;;4.70;1.70;;;;;;;7.04;57.55;96552.94;8475682;28;20229;-66
2021/12/05 03:01:23;;;;;;;7.50;2.20;;;;;;;7.00;57.72;96554.00;8475891;28;20239;-66
2021/12/05 03:05:26;;;;;;;6.73;2.30;;;;;;;6.92;57.95;96549.25;8475859;28;20225;-66
2021/12/05 03:09:29;;;;;;;6.20;2.00;;;;;;;6.81;58.70;96544.66;8476129;28;20229;-66
2021/12/05 03:13:36;;;;;;;8.00;2.30;;;;;;;6.80;58.36;96537.88;8475900;28;20285;-66
2021/12/05 03:17:41;;;;;;;8.23;2.23;;;;;;;6.72;59.08;96552.88;8475452;28;20237;-66
2021/12/05 03:21:44;;;;;;;8.20;2.23;;;;;;;6.81;58.81;96552.38;8475524;28;20229;-66
2021/12/05 03:25:49;;;;;;;9.80;2.60;;;;;;;6.89;58.60;96552.00;8475389;28;20233;-66
2021/12/05 03:29:53;;;;;;;6.63;2.13;;;;;;;6.93;58.62;96556.09;8475282;28;20233;-66
2021/12/05 03:33:56;;;;;;;8.10;2.47;;;;;;;6.99;58.29;96542.06;8475263;28;20234;-66
2021/12/05 03:38:00;;;;;;;8.37;2.40;;;;;;;6.87;58.29;96550.41;8474928;28;20234;-66
2021/12/05 03:42:04;;;;;;;7.63;2.37;;;;;;;6.84;58.72;96546.28;8475178;28;20233;-66
2021/12/05 03:46:09;;;;;;;7.47;2.63;;;;;;;6.77;58.84;96550.88;8474604;28;20241;-66
2021/12/05 03:50:14;;;;;;;10.90;2.60;;;;;;;6.81;58.58;96549.00;8460657;28;20344;-66
2021/12/05 03:54:18;;;;;;;8.13;2.23;;;;;;;6.98;58.05;96559.22;8451880;28;20293;-66
2021/12/05 03:58:23;;;;;;;10.30;2.30;;;;;;;6.83;58.43;96563.47;8451695;28;20529;-66
2021/12/05 04:02:28;;;;;;;8.20;2.43;;;;;;;6.89;58.43;96551.16;8451607;28;20513;-66
2021/12/05 04:06:32;;;;;;;7.97;2.17;;;;;;;6.76;59.05;96562.09;8451595;28;20229;-66
2021/12/05 04:10:35;;;;;;;10.27;2.70;;;;;;;6.72;58.98;96565.75;8451366;28;20230;-66
2021/12/05 04:14:40;;;;;;;8.50;2.40;;;;;;;6.84;59.23;96575.41;8451286;28;20240;-66
2021/12/05 04:18:46;;;;;;;7.20;1.90;;;;;;;6.80;59.25;96573.91;8451239;28;20238;-66
2021/12/05 04:22:49;;;;;;;8.27;2.07;;;;;;;6.87;58.96;96586.44;8451270;28;20233;-66
2021/12/05 04:26:52;;;;;;;9.23;2.33;;;;;;;6.92;58.59;96587.88;8450945;28;20403;-66
2021/12/05 04:30:58;;;;;;;5.67;2.10;;;;;;;6.92;58.45;96585.28;8451083;28;20240;-66
2021/12/05 04:35:03;;;;;;;7.80;2.07;;;;;;;6.83;58.92;96591.75;8451024;28;20252;-66
2021/12/05 04:39:07;;;;;;;6.27;1.80;;;;;;;7.04;58.58;96589.81;8450149;28;20252;-66
2021/12/05 04:43:10;;;;;;;4.80;1.50;;;;;;;7.15;58.46;96593.56;8450466;28;20234;-66
2021/12/05 04:47:13;;;;;;;6.30;1.80;;;;;;;7.07;58.28;96606.03;8450466;28;20229;-66
2021/12/05 04:51:18;;;;;;;6.37;1.70;;;;;;;7.04;58.03;96618.13;8450501;28;20226;-66
2021/12/05 04:55:22;;;;;;;5.50;1.80;;;;;;;7.02;58.59;96630.22;8450131;28;20234;-65
2021/12/05 04:59:27;;;;;;;4.20;1.70;;;;;;;7.10;58.20;96627.28;8449614;28;20237;-66
2021/12/05 05:03:31;;;;;;;6.27;1.60;;;;;;;7.12;58.20;96633.19;8449030;28;20226;-66
2021/12/05 05:07:37;;;;;;;4.83;1.20;;;;;;;7.11;58.57;96639.22;8449851;28;20242;-66
2021/12/05 05:11:41;;;;;;;4.57;1.20;;;;;;;7.05;58.51;96645.53;8449872;28;20300;-66
2021/12/05 05:15:44;;;;;;;4.43;1.37;;;;;;;7.03;58.10;96639.63;8449537;28;20241;-66
2021/12/05 05:19:51;;;;;;;5.57;1.47;;;;;;;7.05;58.00;96634.41;8449891;28;20234;-66
2021/12/05 05:24:23;;;;;;;3.23;1.20;;;;;;;7.02;57.91;96637.13;8450066;28;20233;-66
2021/12/05 05:46:00;;;;;;;4.27;1.50;;;;;;;6.87;58.00;96625.88;8441676;28;20236;-66
2021/12/05 05:50:05;;;;;;;4.50;1.47;;;;;;;7.03;58.00;96624.19;8448337;28;20241;-66
2021/12/05 05:54:08;;;;;;;7.43;2.13;;;;;;;6.91;57.79;96621.41;8447818;28;20222;-66
2021/12/05 05:58:14;;;;;;;4.00;2.30;;;;;;;6.98;57.54;96627.91;8447907;28;20246;-66
2021/12/05 06:06:52;;;;;;;6.07;4.07;;;;;;;6.99;58.03;96629.59;8344172;28;20228;-66
2021/12/05 06:10:57;;;;;;;8.43;5.03;;;;;;;6.96;57.93;96627.16;8383360;28;20225;-66
2021/12/05 06:15:01;;;;;;;9.43;5.33;;;;;;;6.98;57.83;96633.88;8430241;28;20222;-66
2021/12/05 06:19:04;;;;;;;8.70;3.77;;;;;;;6.85;57.73;96635.41;8429693;28;20241;-66
2021/12/05 06:23:07;;;;;;;5.90;2.70;;;;;;;6.91;57.75;96637.69;8432331;28;20219;-67
2021/12/05 06:27:10;;;;;;;10.10;2.40;;;;;;;6.84;57.64;96636.34;8429916;28;20413;-66
2021/12/05 06:31:24;;;;;;;5.20;1.70;;;;;;;6.98;57.47;96640.78;8432923;28;20260;-66
2021/12/05 06:40:03;;;;;;;7.10;2.40;;;;;;;7.00;57.25;96644.09;8433418;28;20230;-67
2021/12/05 06:48:28;;;;;;;6.97;2.47;;;;;;;6.89;57.39;96651.53;8429560;28;20241;-66
2021/12/05 06:52:32;;;;;;;4.37;1.80;;;;;;;6.79;57.48;96659.72;8429391;28;20221;-66
2021/12/05 06:56:35;;;;;;;6.63;2.10;;;;;;;6.80;57.41;96661.38;8422714;28;20226;-66
2021/12/05 07:00:38;;;;;;;6.33;2.70;;;;;;;6.72;57.71;96660.94;8442565;28;20436;-67
2021/12/05 07:04:53;;;;;;;9.70;2.90;;;;;;;6.71;57.80;96661.84;8418738;28;20493;-66
2021/12/05 07:09:00;;;;;;;6.60;2.30;;;;;;;6.84;57.13;96662.06;8440595;28;20239;-67
2021/12/05 07:25:54;;;;;;;7.90;2.20;;;;;;;6.80;57.17;96694.03;8416861;28;20234;-66
2021/12/05 07:43:01;;;;;;;10.03;3.87;;;;;;;6.67;57.41;96710.97;8418528;28;20234;-66
2021/12/05 07:47:04;;;;;;;10.27;3.03;;;;;;;6.21;58.03;96719.13;8418866;28;20230;-66
2021/12/05 07:51:14;;;;;;;8.87;2.60;;;;;;;6.57;57.86;96723.44;8418099;28;20267;-67
2021/12/05 07:55:24;;;;;;;9.63;3.20;;;;;;;6.65;57.66;96729.03;8418228;28;20235;-67
2021/12/05 07:59:40;;;;;;;11.23;5.87;;;;;;;6.60;57.46;96726.66;8435620;28;20226;-66
2021/12/05 08:16:49;;;;;;;8.90;3.57;;;;;;;6.87;57.67;96727.97;8451651;28;20236;-66
2021/12/05 08:20:52;;;;;;;11.60;4.30;;;;;;;6.97;57.36;96726.63;8451137;28;20237;-66
2021/12/05 08:24:59;;;;;;;8.70;3.80;;;;;;;6.94;57.41;96725.03;8451266;28;20233;-66
2021/12/05 08:29:08;;;;;;;8.83;3.53;;;;;;;7.05;57.25;96735.63;8451156;28;20234;-66
2021/12/05 08:33:36;;;;;;;7.20;3.50;;;;;;;7.14;57.16;96738.66;8442536;28;20422;-67
2021/12/05 09:39:40;;;;;;;4.50;2.63;;;;;;;7.74;57.31;96712.41;8448730;28;20234;-67
2021/12/05 10:10:15;;;;;;;5.30;2.80;;;;;;;8.29;55.96;96687.97;8431336;28;20260;-67
2021/12/05 10:14:31;;;;;;;5.97;2.70;;;;;;;8.39;55.23;96683.94;8440367;28;20228;-67
2021/12/05 10:36:19;;;;;;;7.33;3.33;;;;;;;8.80;54.16;96693.72;8429777;28;20214;-67
2021/12/05 10:40:33;;;;;;;6.70;2.70;;;;;;;8.51;55.20;96685.88;8447217;28;20244;-67
2021/12/05 10:44:44;;;;;;;6.53;2.90;;;;;;;8.56;54.94;96695.94;8447040;28;20230;-67
2021/12/05 10:48:50;;;;;;;7.27;2.87;;;;;;;8.69;54.77;96689.16;8447200;28;20230;-67
2021/12/05 10:53:17;;;;;;;5.47;2.57;;;;;;;8.82;54.68;96702.19;8456601;28;20243;-68
2021/12/05 10:57:28;;;;;;;7.03;2.70;;;;;;;8.87;54.27;96697.59;8450378;28;20236;-68
2021/12/05 11:01:35;;;;;;;4.37;2.40;;;;;;;8.86;54.02;96693.34;8475251;28;20537;-68
2021/12/05 11:05:41;;;;;;;5.30;2.40;;;;;;;9.10;53.57;96688.50;8450190;28;20253;-68
2021/12/05 11:09:45;;;;;;;7.53;2.60;;;;;;;9.18;53.35;96691.47;8453929;28;20255;-69
2021/12/05 11:13:50;;;;;;;6.47;2.40;;;;;;;9.01;53.54;96699.38;8453574;28;20236;-69
2021/12/05 11:17:54;;;;;;;8.30;2.57;;;;;;;9.23;52.66;96701.50;8453684;28;20264;-68
2021/12/05 11:22:05;;;;;;;5.47;2.37;;;;;;;9.45;52.12;96708.00;8453361;28;20241;-68
2021/12/05 11:26:17;;;;;;;5.80;2.60;;;;;;;9.06;52.53;96704.25;8444590;28;20226;-68
2021/12/05 11:30:22;;;;;;;8.50;2.93;;;;;;;9.15;52.63;96703.72;8453021;28;20242;-68
2021/12/05 11:34:29;;;;;;;6.80;2.87;;;;;;;9.14;52.45;96707.25;8453072;28;20234;-68
2021/12/05 11:38:35;;;;;;;3.90;1.77;;;;;;;9.05;51.78;96707.78;8432822;28;20246;-68
2021/12/05 11:42:51;;;;;;;6.17;1.97;;;;;;;8.99;52.32;96708.97;8418845;28;20553;-68
2021/12/05 11:46:54;;;;;;;4.73;1.73;;;;;;;8.94;52.97;96701.47;8419047;28;20553;-68
2021/12/05 11:50:58;;;;;;;4.63;1.80;;;;;;;10.93;61.52;96704.81;8418532;28;20235;-74
2021/12/05 11:55:03;;;;;;;6.30;3.10;;;;;;;11.75;49.16;96710.53;8451978;28;20244;-73
2021/12/05 11:59:10;;;;;;;6.83;3.30;;;;;;;10.48;49.52;96699.09;8451144;28;20252;-69
2021/12/05 12:03:13;;;;;;;7.57;4.27;;;;;;;10.07;51.32;96705.09;8451512;28;20234;-68
2021/12/05 12:07:22;;;;;;;7.13;3.30;;;;;;;9.73;51.32;96705.41;8451639;28;20230;-68
2021/12/05 12:11:27;;;;;;;6.53;2.73;;;;;;;9.52;51.46;96704.97;8450990;28;20237;-69
2021/12/05 12:15:32;;;;;;;6.00;2.77;;;;;;;9.44;51.22;96708.91;8451428;28;20226;-68
2021/12/05 12:19:36;;;;;;;6.03;2.70;;;;;;;9.38;52.14;96710.94;8451430;28;20258;-68
2021/12/05 12:23:40;;;;;;;6.40;2.57;;;;;;;9.13;53.32;96703.81;8451294;28;20236;-68
2021/12/05 12:27:45;;;;;;;8.57;3.60;;;;;;;9.18;52.73;96703.56;8451013;28;20234;-68
2021/12/05 12:31:49;;;;;;;4.90;2.50;;;;;;;8.92;52.26;96708.47;8450939;28;20242;-68
2021/12/05 12:35:53;;;;;;;23.97;13.60;;;;;;;8.99;53.64;96714.94;8438203;28;20237;-68
2021/12/05 12:39:56;;;;;;;9.57;6.50;;;;;;;9.05;53.12;96707.78;8461771;28;20237;-68
2021/12/05 12:44:04;;;;;;;7.20;3.40;;;;;;;8.70;53.38;96713.19;8479494;28;20234;-68
2021/12/05 12:48:26;;;;;;;7.53;3.00;;;;;;;8.69;53.14;96712.38;8475662;27;20233;-68
2021/12/05 12:52:29;;;;;;;7.27;2.87;;;;;;;8.61;53.07;96723.13;8468519;27;20520;-67
2021/12/05 12:56:32;;;;;;;8.73;2.77;;;;;;;8.31;54.17;96728.22;8448487;28;20240;-68
2021/12/05 13:00:41;;;;;;;5.87;2.60;;;;;;;8.00;54.79;96732.47;8445265;28;20631;-67
2021/12/05 13:05:03;;;;;;;6.47;2.63;;;;;;;8.25;54.59;96725.16;8450009;28;20289;-74
2021/12/05 13:13:33;;;;;;;14.17;7.53;;;;;;;8.55;54.17;96726.06;8421287;28;21108;-74
2021/12/05 13:17:42;;;;;;;27.57;16.93;;;;;;;8.39;53.70;96728.63;8431885;28;20233;-73
2021/12/05 13:21:52;;;;;;;15.47;9.67;;;;;;;8.59;54.03;96724.16;8430641;28;20230;-76
2021/12/05 13:26:11;;;;;;;7.37;3.50;;;;;;;8.72;53.04;96719.09;8431565;28;20229;-74
2021/12/05 13:30:29;;;;;;;9.63;2.73;;;;;;;8.56;53.19;96727.72;8427657;28;20538;-73
2021/12/05 13:34:50;;;;;;;6.03;2.47;;;;;;;8.35;53.50;96729.72;8415456;28;20231;-76
2021/12/05 13:38:53;;;;;;;7.53;3.73;;;;;;;8.08;54.15;96752.69;8431102;28;20280;-75
2021/12/05 13:43:03;;;;;;;7.63;2.80;;;;;;;8.39;54.04;96738.09;8430945;28;20230;-74
2021/12/05 13:47:16;;;;;;;5.13;2.40;;;;;;;8.41;54.02;96739.75;8430596;28;20214;-74
2021/12/05 13:51:26;;;;;;;7.53;2.50;;;;;;;7.98;54.34;96743.78;8423274;28;20237;-73
2021/12/05 13:55:39;;;;;;;6.20;2.70;;;;;;;8.27;53.74;96744.78;8448368;28;20616;-76
2021/12/05 13:59:42;;;;;;;6.03;2.70;;;;;;;8.51;53.94;96757.25;8448084;28;20256;-77
2021/12/05 14:03:55;;;;;;;7.73;4.87;;;;;;;8.30;53.87;96762.69;8447958;28;20245;-75
2021/12/05 14:08:00;;;;;;;6.83;2.63;;;;;;;8.20;54.59;96764.91;8447977;28;20584;-75
2021/12/05 14:12:11;;;;;;;5.90;2.70;;;;;;;8.14;54.14;96760.06;8448054;28;20238;-74
2021/12/05 14:16:14;;;;;;;7.73;2.73;;;;;;;8.05;54.93;96772.63;8438299;28;20230;-73
2021/12/05 14:20:20;;;;;;;8.53;5.40;;;;;;;8.31;54.59;96763.50;8447511;28;20230;-73
2021/12/05 14:24:27;;;;;;;8.63;2.20;;;;;;;8.08;54.63;96775.88;8448003;28;20296;-74
2021/12/05 14:28:30;;;;;;;5.97;3.27;;;;;;;8.23;54.38;96771.66;8447866;28;20230;-77
2021/12/05 14:32:35;;;;;;;6.67;3.67;;;;;;;8.40;54.67;96779.31;8447084;28;20233;-73
2021/12/05 14:36:40;;;;;;;5.83;3.23;;;;;;;8.44;54.77;96784.34;8446742;28;20257;-75
2021/12/05 14:40:46;;;;;;;6.17;2.90;;;;;;;8.38;55.34;96788.06;8447510;28;20246;-76
2021/12/05 14:44:52;;;;;;;4.17;2.20;;;;;;;8.45;55.32;96786.81;8447590;28;20233;-75
2021/12/05 14:48:56;;;;;;;9.60;2.97;;;;;;;8.44;55.53;96794.66;8445906;28;20236;-75
2021/12/05 14:53:02;;;;;;;6.53;2.57;;;;;;;8.40;55.80;96793.97;8428949;28;20440;-75
2021/12/05 14:57:09;;;;;;;13.33;8.77;;;;;;;8.28;56.37;96800.63;8426693;28;20230;-76
2021/12/05 15:01:13;;;;;;;4.53;2.00;;;;;;;8.28;56.43;96805.78;8413040;28;20230;-75
2021/12/05 15:05:19;;;;;;;5.90;3.00;;;;;;;8.28;55.96;96818.69;8413173;28;20246;-74
2021/12/05 15:09:27;;;;;;;5.10;3.10;;;;;;;8.26;56.46;96817.91;8413175;28;20234;-75
2021/12/05 15:13:32;;;;;;;6.40;3.27;;;;;;;8.29;56.56;96817.75;8413209;28;20240;-74
2021/12/05 15:17:39;;;;;;;4.53;3.20;;;;;;;8.25;56.35;96824.00;8413479;28;20472;-75
2021/12/05 15:21:42;;;;;;;5.40;2.70;;;;;;;8.23;56.93;96826.66;8404648;28;20421;-75
2021/12/05 15:25:46;;;;;;;6.07;4.60;;;;;;;8.14;57.41;96829.69;8404550;28;20235;-76
2021/12/05 15:29:54;;;;;;;7.27;6.20;;;;;;;8.21;57.14;96832.81;8413406;28;20605;-76
2021/12/05 15:33:57;;;;;;;8.07;5.07;;;;;;;8.20;56.97;96839.69;8413133;28;20234;-76
2021/12/05 15:38:03;;;;;;;6.97;4.70;;;;;;;8.22;57.17;96830.16;8412598;28;20245;-76
2021/12/05 15:42:15;;;;;;;8.43;5.13;;;;;;;8.19;57.04;96839.78;8412273;28;20234;-73
2021/12/05 15:46:19;;;;;;;10.53;5.93;;;;;;;8.14;57.27;96840.03;8416346;28;20243;-75
2021/12/05 15:50:24;;;;;;;9.70;6.90;;;;;;;8.07;57.32;96838.66;8418919;28;20249;-76
2021/12/05 15:54:27;;;;;;;9.23;6.37;;;;;;;8.10;57.18;96837.69;8447891;28;20234;-75
2021/12/05 15:58:32;;;;;;;15.87;10.00;;;;;;;8.17;57.39;96836.47;8452275;28;20238;-75
2021/12/05 16:02:39;;;;;;;82.37;32.87;;;;;;;8.01;57.30;96836.41;8451983;28;20473;-75
2021/12/05 16:06:43;;;;;;;18.03;11.10;;;;;;;8.01;57.10;96839.00;8452166;28;20409;-75
2021/12/05 16:10:48;;;;;;;15.33;10.43;;;;;;;8.08;57.30;96830.03;8452226;28;20234;-75
2021/12/05 16:14:52;;;;;;;8.10;5.13;;;;;;;8.13;56.82;96840.09;8451846;28;20238;-75
2021/12/05 16:18:58;;;;;;;13.97;10.57;;;;;;;8.13;56.74;96840.09;8451907;28;20233;-75
2021/12/05 16:23:14;;;;;;;25.63;16.27;;;;;;;8.16;56.77;96843.34;8451128;28;20246;-75
2021/12/05 16:27:17;;;;;;;16.20;12.20;;;;;;;8.12;57.08;96848.75;8443914;28;20227;-75
2021/12/05 16:31:23;;;;;;;17.63;12.80;;;;;;;8.08;57.12;96855.81;8450961;28;20643;-75
2021/12/05 16:35:32;;;;;;;19.50;14.07;;;;;;;8.10;57.24;96864.31;8450624;28;20238;-75
2021/12/05 16:39:37;;;;;;;15.43;12.70;;;;;;;8.01;57.20;96868.22;8452318;28;20284;-76
2021/12/05 16:43:47;;;;;;;17.73;12.43;;;;;;;7.93;57.16;96864.34;8450552;28;20248;-76
2021/12/05 16:47:50;;;;;;;29.13;20.00;;;;;;;7.85;57.26;96863.91;8450484;28;20230;-76
2021/12/05 16:51:57;;;;;;;18.23;12.73;;;;;;;7.79;57.20;96870.22;8450273;28;20234;-75
2021/12/05 16:56:01;;;;;;;27.60;21.57;;;;;;;7.76;57.67;96870.34;8450447;28;20230;-76
2021/12/05 17:00:11;;;;;;;26.67;21.60;;;;;;;7.85;57.43;96869.06;8449838;28;20238;-69
2021/12/05 17:04:15;;;;;;;29.47;24.27;;;;;;;7.84;57.10;96868.22;8449040;28;20230;-71
2021/12/05 17:08:20;;;;;;;25.57;19.87;;;;;;;7.69;57.25;96872.44;8449662;28;20244;-70
2021/12/05 17:12:26;;;;;;;26.90;19.67;;;;;;;7.60;57.36;96878.03;8449775;28;20240;-70
2021/12/05 17:16:30;;;;;;;24.83;18.80;;;;;;;7.65;57.34;96873.47;8449505;28;20271;-71
2021/12/05 17:20:37;;;;;;;21.03;15.83;;;;;;;7.57;57.52;96881.56;8449287;28;20281;-70
2021/12/05 17:24:42;;;;;;;31.47;24.47;;;;;;;7.50;57.24;96890.53;8449096;28;20528;-71
2021/12/05 17:28:48;;;;;;;36.70;28.67;;;;;;;7.51;57.48;96891.38;8449401;28;20259;-70
2021/12/05 17:32:50;;;;;;;38.87;28.37;;;;;;;7.43;56.95;96896.91;8449637;28;20240;-70
2021/12/05 17:36:57;;;;;;;30.07;19.87;;;;;;;7.45;57.29;96902.81;8448464;28;20541;-72
2021/12/05 17:41:01;;;;;;;20.13;15.70;;;;;;;7.39;57.25;96913.41;8449342;28;20234;-72
2021/12/05 17:45:07;;;;;;;22.83;17.47;;;;;;;7.43;56.69;96920.91;8448947;28;20230;-71
2021/12/05 17:49:12;;;;;;;13.77;11.47;;;;;;;7.38;57.14;96929.75;8439951;28;20232;-71
2021/12/05 17:53:15;;;;;;;14.17;9.97;;;;;;;7.36;57.30;96931.56;8447757;28;20238;-72
2021/12/05 17:57:31;;;;;;;17.67;13.57;;;;;;;7.36;57.43;96929.00;8447759;28;20255;-72
2021/12/05 18:05:55;;;;;;;15.27;11.50;;;;;;;7.36;57.68;96936.72;8447677;28;20230;-71
2021/12/05 18:09:58;;;;;;;13.10;10.27;;;;;;;7.36;57.35;96936.72;8447109;28;20304;-72
2021/12/05 18:14:04;;;;;;;10.67;8.83;;;;;;;7.43;57.59;96953.56;8447334;28;20248;-73
2021/12/05 18:18:07;;;;;;;13.73;7.50;;;;;;;7.40;58.03;96951.13;8447184;28;20236;-74
2021/12/05 18:22:11;;;;;;;17.40;7.80;;;;;;;7.30;58.23;96953.31;8447272;28;20234;-73
2021/12/05 18:26:16;;;;;;;14.07;8.93;;;;;;;7.38;58.06;96958.91;8447514;28;20243;-73
2021/12/05 18:30:22;;;;;;;12.47;8.97;;;;;;;7.42;57.84;96967.34;8447487;28;20424;-73
2021/12/05 18:34:29;;;;;;;11.73;8.53;;;;;;;7.36;58.09;96970.22;8447238;28;20234;-72
2021/12/05 18:38:32;;;;;;;12.40;7.50;;;;;;;7.34;57.95;96970.28;8446914;28;20240;-72
2021/12/05 18:42:35;;;;;;;10.33;8.30;;;;;;;6.92;59.26;96970.53;8446966;28;20230;-71
2021/12/05 18:46:40;;;;;;;19.90;12.97;;;;;;;6.50;60.45;96972.38;8447321;28;20234;-74
2021/12/05 18:50:44;;;;;;;16.53;10.47;;;;;;;6.93;59.31;96973.06;8446751;28;20225;-72
2021/12/05 18:54:47;;;;;;;13.83;9.93;;;;;;;7.19;58.58;96979.56;8446932;28;20545;-72
2021/12/05 18:58:50;;;;;;;14.13;10.43;;;;;;;7.05;58.86;96976.78;8446643;28;20233;-72
2021/12/05 19:07:22;;;;;;;16.90;12.80;;;;;;;7.16;58.57;96974.56;8446288;28;20293;-72
2021/12/05 19:11:43;;;;;;;21.37;14.07;;;;;;;7.12;58.85;96987.63;8446818;28;20260;-72
2021/12/05 19:15:47;;;;;;;23.50;16.20;;;;;;;7.29;58.34;96997.16;8446772;28;20293;-72
2021/12/05 19:19:53;;;;;;;21.20;16.10;;;;;;;7.45;65.87;97000.69;8459583;28;20278;-69
2021/12/05 19:23:57;;;;;;;39.20;26.73;;;;;;;9.91;61.26;97002.63;8487036;27;20423;-69
2021/12/05 19:28:01;;;;;;;22.67;18.70;;;;;;;8.49;55.53;96996.50;8486842;27;20229;-72
2021/12/05 19:32:06;;;;;;;58.13;46.43;;;;;;;7.99;55.83;97006.66;8486547;27;20225;-73
2021/12/05 19:36:14;;;;;;;28.30;22.27;;;;;;;7.81;56.08;97008.41;8478258;27;20222;-72
2021/12/05 19:40:19;;;;;;;24.43;20.33;;;;;;;7.56;56.87;97023.38;8486313;28;20233;-73
2021/12/05 19:44:23;;;;;;;24.17;18.40;;;;;;;7.50;56.63;97021.94;8469301;27;20235;-73
2021/12/05 19:48:27;;;;;;;20.50;15.53;;;;;;;7.49;56.47;97020.25;8434676;28;20234;-73
2021/12/05 19:52:31;;;;;;;17.00;13.30;;;;;;;7.46;56.72;97022.94;8453984;28;20384;-73
2021/12/05 19:56:35;;;;;;;13.07;9.27;;;;;;;7.44;56.53;97035.94;8486145;27;20229;-72
2021/12/05 20:00:39;;;;;;;13.67;8.93;;;;;;;7.32;56.91;97038.22;8485679;28;20233;-73
2021/12/05 20:04:47;;;;;;;19.40;16.07;;;;;;;7.30;56.76;97042.63;8485721;27;20547;-73
2021/12/05 20:08:52;;;;;;;10.97;8.60;;;;;;;7.19;57.80;97030.22;8485359;27;20335;-72
2021/12/05 20:12:57;;;;;;;11.10;7.67;;;;;;;7.15;57.06;97044.16;8478228;28;20241;-72
2021/12/05 20:17:00;;;;;;;9.80;7.23;;;;;;;7.15;57.17;97047.56;8423460;28;20253;-72
2021/12/05 20:21:07;;;;;;;9.70;8.60;;;;;;;7.15;57.13;97042.41;8421261;28;20228;-73
2021/12/05 20:25:14;;;;;;;12.13;7.90;;;;;;;6.98;57.06;97048.31;8433452;28;20527;-72
2021/12/05 20:29:17;;;;;;;16.10;12.33;;;;;;;6.94;57.13;97048.53;8433617;28;20228;-67
2021/12/05 20:33:20;;;;;;;15.27;11.87;;;;;;;6.94;57.34;97051.09;8433069;28;20237;-67
2021/12/05 20:37:23;;;;;;;15.57;11.20;;;;;;;6.82;56.98;97053.31;8433159;28;20240;-68
2021/12/05 20:41:28;;;;;;;14.60;11.00;;;;;;;6.94;57.00;97051.09;8433296;28;20226;-67
2021/12/05 20:45:32;;;;;;;11.93;10.67;;;;;;;6.96;56.28;97054.44;8433258;28;20307;-67
2021/12/05 20:49:35;;;;;;;12.17;10.90;;;;;;;6.91;56.33;97052.06;8430286;28;20234;-67
2021/12/05 20:53:39;;;;;;;14.83;11.83;;;;;;;6.77;56.52;97047.50;8439592;28;20240;-67
2021/12/05 20:57:43;;;;;;;15.70;13.07;;;;;;;6.77;56.81;97050.09;8450151;28;20234;-67
2021/12/05 21:01:47;;;;;;;17.30;12.37;;;;;;;6.73;56.68;97053.69;8432178;28;20231;-67
2021/12/05 21:05:52;;;;;;;15.27;11.73;;;;;;;6.71;56.88;97055.50;8432128;28;20231;-67
2021/12/05 21:09:55;;;;;;;16.20;11.17;;;;;;;6.74;56.39;97052.81;8432033;28;20424;-67
2021/12/05 21:13:59;;;;;;;14.50;11.00;;;;;;;6.52;56.52;97052.06;8432267;28;20233;-67
2021/12/05 21:18:02;;;;;;;17.43;12.30;;;;;;;6.54;56.77;97050.25;8431849;28;20425;-67
2021/12/05 21:22:06;;;;;;;19.67;14.97;;;;;;;6.44;56.71;97054.97;8431849;28;20223;-67
2021/12/05 21:26:09;;;;;;;20.80;17.43;;;;;;;6.42;56.20;97065.31;8422875;28;20234;-69
2021/12/05 21:30:16;;;;;;;19.37;13.80;;;;;;;6.37;56.07;97061.25;8431280;28;20223;-68
2021/12/05 21:34:19;;;;;;;12.53;8.90;;;;;;;6.37;56.12;97072.38;8436988;28;20234;-68
2021/12/05 21:38:23;;;;;;;15.30;11.00;;;;;;;6.25;56.16;97068.56;8448469;28;20238;-67
2021/12/05 21:42:26;;;;;;;15.03;11.53;;;;;;;6.25;55.83;97065.19;8427676;28;20509;-67
2021/12/05 21:46:31;;;;;;;15.77;10.13;;;;;;;6.26;55.81;97075.41;8431025;28;20493;-67
2021/12/05 21:50:34;;;;;;;15.60;11.73;;;;;;;6.21;55.82;97071.34;8430685;28;20227;-67
2021/12/05 21:54:37;;;;;;;19.43;13.87;;;;;;;6.12;56.50;97074.28;8431605;28;20311;-67
2021/12/05 21:58:40;;;;;;;14.73;12.97;;;;;;;6.07;56.87;97067.59;8430551;28;20231;-67
2021/12/05 22:02:44;;;;;;;19.00;13.33;;;;;;;6.11;56.71;97085.47;8430431;28;20235;-68
2021/12/05 22:06:48;;;;;;;20.03;13.50;;;;;;;6.03;57.11;97084.03;8416251;28;20560;-68
2021/12/05 22:10:52;;;;;;;32.87;12.67;;;;;;;6.13;57.03;97073.38;8414179;28;20406;-68
2021/12/05 22:14:55;;;;;;;22.93;12.10;;;;;;;6.02;57.02;97094.41;8414326;28;20244;-68
2021/12/05 22:19:02;;;;;;;25.10;11.87;;;;;;;5.96;56.89;97095.47;8414430;28;20230;-68
2021/12/05 22:23:05;;;;;;;19.80;11.30;;;;;;;5.89;56.80;97096.56;8405398;28;20234;-67
2021/12/05 22:27:08;;;;;;;13.40;9.67;;;;;;;5.88;57.18;97105.16;8380492;28;20224;-67
2021/12/05 22:31:11;;;;;;;11.73;9.33;;;;;;;5.82;56.38;97110.56;8381237;28;20240;-67
2021/12/05 22:35:16;;;;;;;11.57;10.37;;;;;;;5.76;56.47;97121.06;8380820;28;20658;-67
2021/12/05 22:39:19;;;;;;;10.20;9.23;;;;;;;5.84;56.29;97127.56;8384554;28;20423;-67
2021/12/05 22:43:23;;;;;;;9.57;8.67;;;;;;;5.69;55.98;97128.16;8380168;28;20246;-67
2021/12/05 22:47:30;;;;;;;10.37;9.40;;;;;;;5.71;55.82;97125.53;8380445;28;20228;-67
2021/12/05 22:51:35;;;;;;;12.40;10.60;;;;;;;5.67;55.42;97137.66;8385283;28;20423;-68
2021/12/05 22:55:38;;;;;;;11.80;10.30;;;;;;;5.64;55.76;97138.63;8417489;28;20234;-68
2021/12/05 22:59:41;;;;;;;11.67;10.47;;;;;;;5.71;55.06;97144.34;8420145;28;20242;-69
2021/12/05 23:03:46;;;;;;;11.17;9.63;;;;;;;5.51;55.23;97147.69;8420052;28;20258;-68
2021/12/05 23:07:50;;;;;;;10.83;9.70;;;;;;;5.54;55.60;97157.84;8420153;28;20269;-68
2021/12/05 23:11:54;;;;;;;11.47;10.27;;;;;;;5.49;55.60;97168.28;8420084;28;20293;-68
2021/12/05 23:15:57;;;;;;;11.33;9.57;;;;;;;5.61;55.55;97168.72;8419634;28;20235;-68
2021/12/05 23:20:00;;;;;;;10.90;9.73;;;;;;;5.57;55.53;97168.00;8419417;28;20238;-68
2021/12/05 23:24:07;;;;;;;11.77;10.57;;;;;;;5.59;55.53;97179.06;8419334;28;20242;-68
2021/12/05 23:28:10;;;;;;;17.73;14.23;;;;;;;5.24;55.99;97175.22;8418852;28;20229;-69
2021/12/05 23:32:15;;;;;;;11.90;10.70;;;;;;;5.69;55.80;97187.25;8419014;28;20237;-69
2021/12/05 23:36:21;;;;;;;11.40;10.20;;;;;;;5.68;56.22;97188.16;8419083;28;20235;-69
2021/12/05 23:40:26;;;;;;;11.80;10.13;;;;;;;5.72;56.50;97187.16;8418550;28;20239;-69
2021/12/05 23:44:29;;;;;;;11.20;10.00;;;;;;;5.76;56.39;97190.44;8418815;28;20394;-69
2021/12/05 23:48:32;;;;;;;12.10;10.90;;;;;;;5.72;56.08;97194.03;8418535;28;20235;-68
2021/12/05 23:52:36;;;;;;;11.50;10.30;;;;;;;5.78;56.86;97196.34;8418475;28;20404;-69
2021/12/05 23:56:41;;;;;;;12.00;10.80;;;;;;;5.77;56.55;97194.66;8418243;28;20240;-68
